Eastsound, WA

3:54 PM PDT on October 31, 2014 (GMT -0700)
Orcas Island | Change Station
CLOSE
Current Station
Airport
Location: Eastsound,
Elevation: 30 ft
Nearby Weather Stations

Elev 30 ft 48.71 °N, 122.91 °W | Updated 19 minutes ago

Scattered Clouds
Scattered Clouds
54 °F
Feels Like 54 °F
N
7
Wind Variable Wind from South

Today
High -- | Low -- °F
--% Chance of Precip.
Yesterday
High -- | Low -- °F
Precip. -- in
7:56 AM 5:52 PM
First Quarter, 59% visible
Pressure 29.80 in
Visibility 10.0 miles
Clouds Few 5000 ft
Scattered Clouds 6000 ft
Dew Point 50 °F
Humidity 88%
Rainfall 0.50 in
Snow Depth Not available.
UV 1 out of 12
Pollen .30 out of 12
Air Quality Not available.
Flu Activity Not available.
METAR KORS 312235Z AUTO 19006KT 10SM FEW050 SCT060 12/10 A2980 RMK AO2

More Conditions Fewer Conditions

Pressure 29.80 in
Visibility 10.0 miles
Clouds Few 5000 ft
Scattered Clouds 6000 ft
Dew Point 50 °F
Humidity 88%
Rainfall 0.50 in
Snow Depth Not available.
UV 1 out of 12
Pollen .30 out of 12
Air Quality Not available.
Flu Activity Not available.
METAR KORS 312235Z AUTO 19006KT 10SM FEW050 SCT060 12/10 A2980 RMK AO2

More Conditions Fewer Conditions

10-Day Weather Forecast

Almanac

Astronomy

Oct. 31, 2014 Rise Set
Actual Time
Civil Twilight
Nautical Twilight
Astronomical Twilight
Moon
Length of Visible Light
Length of Day
Tomorrow will be .
, % of the Moon is Illuminated

Today's Extremes

State Highs State Lows

Community

WunderPhotos

Upload Photos

1,766,770 photos uploaded!

WunderBlogs® & News

Nearby

Air Quality

  Air Quality AQ Index Pollutant
Not available.

Snow Depth

Station Depth Elevation

Earthquake Activity

City Distance Mag. Time & Date
Minimum magnitude displayed is 2.5.

Coastal Water Temperatures

Place Temperature

Nearby Weather Stations